sensor_id;sensor_type;location;lat;lon;timestamp;pressure;altitude;pressure_sealevel;temperature;humidity
7376;BME280;3728;42.266;24.944;2023-12-20T00:00:37;99998.13;;;3.30;100.00
7376;BME280;3728;42.266;24.944;2023-12-20T00:03:04;99993.47;;;3.32;100.00
7376;BME280;3728;42.266;24.944;2023-12-20T00:05:31;99988.84;;;3.34;100.00
7376;BME280;3728;42.266;24.944;2023-12-20T00:08:02;99990.59;;;3.29;100.00
7376;BME280;3728;42.266;24.944;2023-12-20T00:10:32;99989.28;;;3.26;100.00
7376;BME280;3728;42.266;24.944;2023-12-20T00:12:59;99986.75;;;3.31;100.00
7376;BME280;3728;42.266;24.944;2023-12-20T00:15:26;99979.19;;;3.25;100.00
7376;BME280;3728;42.266;24.944;2023-12-20T00:17:53;99981.41;;;3.38;100.00
7376;BME280;3728;42.266;24.944;2023-12-20T00:20:20;99971.44;;;3.30;100.00
7376;BME280;3728;42.266;24.944;2023-12-20T00:22:47;99964.78;;;3.34;100.00
7376;BME280;3728;42.266;24.944;2023-12-20T00:25:15;99968.13;;;3.34;100.00
7376;BME280;3728;42.266;24.944;2023-12-20T00:27:42;99956.16;;;3.28;99.93
7376;BME280;3728;42.266;24.944;2023-12-20T00:30:10;99953.59;;;3.28;99.90
7376;BME280;3728;42.266;24.944;2023-12-20T00:32:38;99948.34;;;3.23;99.98
7376;BME280;3728;42.266;24.944;2023-12-20T00:35:06;99945.94;;;3.17;100.00
7376;BME280;3728;42.266;24.944;2023-12-20T00:37:33;99949.00;;;3.14;100.00
7376;BME280;3728;42.266;24.944;2023-12-20T00:40:00;99945.88;;;3.12;100.00
7376;BME280;3728;42.266;24.944;2023-12-20T00:42:28;99946.06;;;3.05;100.00
7376;BME280;3728;42.266;24.944;2023-12-20T00:44:55;99946.84;;;3.06;100.00
7376;BME280;3728;42.266;24.944;2023-12-20T00:47:22;99940.31;;;2.82;100.00
7376;BME280;3728;42.266;24.944;2023-12-20T00:49:49;99940.97;;;2.72;100.00
7376;BME280;3728;42.266;24.944;2023-12-20T00:52:16;99927.88;;;2.62;100.00
7376;BME280;3728;42.266;24.944;2023-12-20T00:54:44;99931.28;;;2.46;100.00
7376;BME280;3728;42.266;24.944;2023-12-20T00:57:12;99928.16;;;2.44;100.00
7376;BME280;3728;42.266;24.944;2023-12-20T00:59:39;99929.84;;;2.55;100.00
7376;BME280;3728;42.266;24.944;2023-12-20T01:02:06;99933.16;;;2.50;100.00
7376;BME280;3728;42.266;24.944;2023-12-20T01:04:34;99927.97;;;2.50;100.00
7376;BME280;3728;42.266;24.944;2023-12-20T01:07:01;99930.97;;;2.42;100.00
7376;BME280;3728;42.266;24.944;2023-12-20T01:09:28;99939.69;;;2.74;100.00
7376;BME280;3728;42.266;24.944;2023-12-20T01:11:55;99942.97;;;2.87;97.51
7376;BME280;3728;42.266;24.944;2023-12-20T01:14:22;99934.81;;;2.78;98.22
7376;BME280;3728;42.266;24.944;2023-12-20T01:16:50;99930.94;;;2.75;98.10
7376;BME280;3728;42.266;24.944;2023-12-20T01:19:17;99926.84;;;2.80;98.79
7376;BME280;3728;42.266;24.944;2023-12-20T01:21:44;99914.19;;;2.83;99.59
7376;BME280;3728;42.266;24.944;2023-12-20T01:24:11;99904.50;;;2.52;100.00
7376;BME280;3728;42.266;24.944;2023-12-20T01:26:38;99907.53;;;2.49;100.00
7376;BME280;3728;42.266;24.944;2023-12-20T01:29:06;99903.72;;;2.51;100.00
7376;BME280;3728;42.266;24.944;2023-12-20T01:31:33;99899.31;;;2.52;100.00
7376;BME280;3728;42.266;24.944;2023-12-20T01:34:00;99899.59;;;2.72;100.00
7376;BME280;3728;42.266;24.944;2023-12-20T01:36:27;99882.63;;;2.81;100.00
7376;BME280;3728;42.266;24.944;2023-12-20T01:38:55;99881.56;;;2.77;100.00
7376;BME280;3728;42.266;24.944;2023-12-20T01:41:23;99879.09;;;2.65;100.00
7376;BME280;3728;42.266;24.944;2023-12-20T01:43:50;99874.25;;;2.52;100.00
7376;BME280;3728;42.266;24.944;2023-12-20T01:46:19;99869.13;;;2.57;100.00
7376;BME280;3728;42.266;24.944;2023-12-20T01:48:48;99864.97;;;2.73;100.00
7376;BME280;3728;42.266;24.944;2023-12-20T01:51:16;99865.97;;;2.72;100.00
7376;BME280;3728;42.266;24.944;2023-12-20T01:53:43;99864.78;;;2.41;100.00
7376;BME280;3728;42.266;24.944;2023-12-20T01:56:11;99864.63;;;2.48;100.00
7376;BME280;3728;42.266;24.944;2023-12-20T01:58:43;99858.19;;;2.50;100.00
7376;BME280;3728;42.266;24.944;2023-12-20T02:01:11;99855.44;;;2.40;100.00
7376;BME280;3728;42.266;24.944;2023-12-20T02:03:43;99857.00;;;2.58;100.00
7376;BME280;3728;42.266;24.944;2023-12-20T02:06:11;99850.13;;;2.47;100.00
7376;BME280;3728;42.266;24.944;2023-12-20T02:08:38;99841.25;;;2.59;100.00
7376;BME280;3728;42.266;24.944;2023-12-20T02:11:05;99839.19;;;2.40;100.00
7376;BME280;3728;42.266;24.944;2023-12-20T02:13:33;99839.19;;;2.40;100.00
7376;BME280;3728;42.266;24.944;2023-12-20T02:16:00;99840.19;;;2.39;100.00
7376;BME280;3728;42.266;24.944;2023-12-20T02:18:27;99838.69;;;2.43;100.00
7376;BME280;3728;42.266;24.944;2023-12-20T02:20:55;99836.78;;;2.55;100.00
7376;BME280;3728;42.266;24.944;2023-12-20T02:23:23;99843.44;;;2.67;100.00
7376;BME280;3728;42.266;24.944;2023-12-20T02:25:50;99841.13;;;2.71;100.00
7376;BME280;3728;42.266;24.944;2023-12-20T02:28:17;99842.03;;;2.60;100.00
7376;BME280;3728;42.266;24.944;2023-12-20T02:30:44;99829.75;;;2.50;100.00
7376;BME280;3728;42.266;24.944;2023-12-20T02:33:12;99834.88;;;2.67;100.00
7376;BME280;3728;42.266;24.944;2023-12-20T02:35:41;99828.50;;;2.53;100.00
7376;BME280;3728;42.266;24.944;2023-12-20T02:38:08;99834.56;;;2.42;100.00
7376;BME280;3728;42.266;24.944;2023-12-20T02:40:35;99833.88;;;2.30;100.00
7376;BME280;3728;42.266;24.944;2023-12-20T02:43:02;99833.97;;;2.18;100.00
7376;BME280;3728;42.266;24.944;2023-12-20T02:45:30;99832.00;;;2.25;100.00
7376;BME280;3728;42.266;24.944;2023-12-20T02:47:57;99826.66;;;2.32;100.00
7376;BME280;3728;42.266;24.944;2023-12-20T02:50:24;99819.63;;;2.27;100.00
7376;BME280;3728;42.266;24.944;2023-12-20T02:52:51;99821.34;;;2.22;100.00
7376;BME280;3728;42.266;24.944;2023-12-20T02:55:18;99814.00;;;2.30;100.00
7376;BME280;3728;42.266;24.944;2023-12-20T02:57:46;99819.59;;;2.44;100.00
7376;BME280;3728;42.266;24.944;2023-12-20T03:00:14;99814.69;;;2.42;100.00
7376;BME280;3728;42.266;24.944;2023-12-20T03:02:41;99814.97;;;2.46;100.00
7376;BME280;3728;42.266;24.944;2023-12-20T03:05:08;99816.91;;;2.55;100.00
7376;BME280;3728;42.266;24.944;2023-12-20T03:07:37;99813.47;;;2.50;99.81
7376;BME280;3728;42.266;24.944;2023-12-20T03:10:07;99819.13;;;2.47;100.00
7376;BME280;3728;42.266;24.944;2023-12-20T03:12:46;99815.03;;;2.51;100.00
7376;BME280;3728;42.266;24.944;2023-12-20T03:15:13;99805.16;;;2.48;100.00
7376;BME280;3728;42.266;24.944;2023-12-20T03:17:40;99803.31;;;2.43;100.00
7376;BME280;3728;42.266;24.944;2023-12-20T03:20:09;99791.88;;;2.39;100.00
7376;BME280;3728;42.266;24.944;2023-12-20T03:22:36;99789.38;;;2.44;100.00
7376;BME280;3728;42.266;24.944;2023-12-20T03:25:04;99785.69;;;2.40;100.00
7376;BME280;3728;42.266;24.944;2023-12-20T03:27:31;99786.25;;;2.42;100.00
7376;BME280;3728;42.266;24.944;2023-12-20T03:29:58;99785.38;;;2.37;100.00
7376;BME280;3728;42.266;24.944;2023-12-20T03:32:25;99783.59;;;2.37;100.00
7376;BME280;3728;42.266;24.944;2023-12-20T03:34:53;99790.31;;;2.38;100.00
7376;BME280;3728;42.266;24.944;2023-12-20T03:37:21;99789.78;;;2.58;100.00
7376;BME280;3728;42.266;24.944;2023-12-20T03:39:49;99776.19;;;2.46;100.00
7376;BME280;3728;42.266;24.944;2023-12-20T03:42:16;99770.75;;;2.42;100.00
7376;BME280;3728;42.266;24.944;2023-12-20T03:44:43;99758.63;;;2.48;100.00
7376;BME280;3728;42.266;24.944;2023-12-20T03:47:11;99766.78;;;2.56;100.00
7376;BME280;3728;42.266;24.944;2023-12-20T03:49:38;99774.22;;;2.53;100.00
7376;BME280;3728;42.266;24.944;2023-12-20T03:52:05;99769.56;;;2.55;100.00
7376;BME280;3728;42.266;24.944;2023-12-20T03:54:34;99768.25;;;2.52;100.00
7376;BME280;3728;42.266;24.944;2023-12-20T03:57:02;99771.03;;;2.46;100.00
7376;BME280;3728;42.266;24.944;2023-12-20T03:59:29;99778.00;;;2.45;100.00
7376;BME280;3728;42.266;24.944;2023-12-20T04:01:57;99768.97;;;2.26;100.00
7376;BME280;3728;42.266;24.944;2023-12-20T04:04:24;99772.75;;;2.19;100.00
7376;BME280;3728;42.266;24.944;2023-12-20T04:06:51;99770.09;;;2.14;100.00
7376;BME280;3728;42.266;24.944;2023-12-20T04:09:18;99777.84;;;2.14;100.00
7376;BME280;3728;42.266;24.944;2023-12-20T04:11:46;99770.66;;;2.16;100.00
7376;BME280;3728;42.266;24.944;2023-12-20T04:14:13;99776.06;;;2.14;100.00
7376;BME280;3728;42.266;24.944;2023-12-20T04:16:40;99760.16;;;2.05;100.00
7376;BME280;3728;42.266;24.944;2023-12-20T04:19:12;99763.53;;;2.06;100.00
7376;BME280;3728;42.266;24.944;2023-12-20T04:21:39;99759.47;;;1.93;100.00
7376;BME280;3728;42.266;24.944;2023-12-20T04:24:06;99761.91;;;2.00;100.00
7376;BME280;3728;42.266;24.944;2023-12-20T04:26:35;99773.06;;;2.22;100.00
7376;BME280;3728;42.266;24.944;2023-12-20T04:29:02;99755.44;;;1.97;100.00
7376;BME280;3728;42.266;24.944;2023-12-20T04:31:29;99748.22;;;1.99;100.00
7376;BME280;3728;42.266;24.944;2023-12-20T04:33:56;99749.44;;;2.14;100.00
7376;BME280;3728;42.266;24.944;2023-12-20T04:36:24;99745.59;;;2.16;100.00
7376;BME280;3728;42.266;24.944;2023-12-20T04:38:53;99757.66;;;2.11;100.00
7376;BME280;3728;42.266;24.944;2023-12-20T04:41:20;99758.34;;;2.23;100.00
7376;BME280;3728;42.266;24.944;2023-12-20T04:43:48;99756.88;;;2.10;100.00
7376;BME280;3728;42.266;24.944;2023-12-20T04:46:15;99754.22;;;2.05;100.00
7376;BME280;3728;42.266;24.944;2023-12-20T04:48:42;99755.72;;;2.01;100.00
7376;BME280;3728;42.266;24.944;2023-12-20T04:51:13;99752.81;;;2.14;100.00
7376;BME280;3728;42.266;24.944;2023-12-20T04:53:40;99747.56;;;2.09;100.00
7376;BME280;3728;42.266;24.944;2023-12-20T04:56:07;99759.88;;;2.02;100.00
7376;BME280;3728;42.266;24.944;2023-12-20T04:58:34;99757.53;;;1.84;100.00
7376;BME280;3728;42.266;24.944;2023-12-20T05:01:01;99747.31;;;1.72;100.00
7376;BME280;3728;42.266;24.944;2023-12-20T05:03:29;99753.72;;;1.70;100.00
7376;BME280;3728;42.266;24.944;2023-12-20T05:05:56;99743.09;;;1.66;100.00
7376;BME280;3728;42.266;24.944;2023-12-20T05:08:24;99744.59;;;1.62;100.00
7376;BME280;3728;42.266;24.944;2023-12-20T05:10:54;99738.31;;;1.58;100.00
7376;BME280;3728;42.266;24.944;2023-12-20T05:13:21;99744.25;;;1.59;100.00
7376;BME280;3728;42.266;24.944;2023-12-20T05:16:07;99738.22;;;1.53;100.00
7376;BME280;3728;42.266;24.944;2023-12-20T05:18:35;99733.06;;;1.53;100.00
7376;BME280;3728;42.266;24.944;2023-12-20T05:21:03;99728.78;;;1.59;100.00
7376;BME280;3728;42.266;24.944;2023-12-20T05:23:30;99725.81;;;1.67;100.00
7376;BME280;3728;42.266;24.944;2023-12-20T05:26:01;99716.75;;;1.64;100.00
7376;BME280;3728;42.266;24.944;2023-12-20T05:28:28;99712.66;;;1.68;100.00
7376;BME280;3728;42.266;24.944;2023-12-20T05:30:55;99717.59;;;1.53;100.00
7376;BME280;3728;42.266;24.944;2023-12-20T05:33:23;99714.22;;;1.69;100.00
7376;BME280;3728;42.266;24.944;2023-12-20T05:35:50;99707.97;;;1.65;100.00
7376;BME280;3728;42.266;24.944;2023-12-20T05:38:17;99707.19;;;1.65;100.00
7376;BME280;3728;42.266;24.944;2023-12-20T05:40:46;99699.13;;;1.61;100.00
7376;BME280;3728;42.266;24.944;2023-12-20T05:43:13;99702.59;;;1.67;100.00
7376;BME280;3728;42.266;24.944;2023-12-20T05:45:40;99691.28;;;1.73;100.00
7376;BME280;3728;42.266;24.944;2023-12-20T05:48:09;99690.91;;;1.81;100.00
7376;BME280;3728;42.266;24.944;2023-12-20T05:50:36;99694.28;;;1.81;100.00
7376;BME280;3728;42.266;24.944;2023-12-20T05:53:03;99694.94;;;1.93;100.00
7376;BME280;3728;42.266;24.944;2023-12-20T05:55:31;99687.59;;;1.85;100.00
7376;BME280;3728;42.266;24.944;2023-12-20T05:57:59;99681.47;;;1.91;100.00
7376;BME280;3728;42.266;24.944;2023-12-20T06:00:27;99684.84;;;1.92;100.00
7376;BME280;3728;42.266;24.944;2023-12-20T06:02:55;99687.78;;;2.00;100.00
7376;BME280;3728;42.266;24.944;2023-12-20T06:05:24;99691.09;;;1.96;100.00
7376;BME280;3728;42.266;24.944;2023-12-20T06:07:51;99684.34;;;1.73;100.00
7376;BME280;3728;42.266;24.944;2023-12-20T06:10:19;99690.78;;;1.54;100.00
7376;BME280;3728;42.266;24.944;2023-12-20T06:12:46;99683.81;;;1.71;100.00
7376;BME280;3728;42.266;24.944;2023-12-20T06:15:16;99681.38;;;1.81;100.00
7376;BME280;3728;42.266;24.944;2023-12-20T06:17:44;99678.53;;;1.83;100.00
7376;BME280;3728;42.266;24.944;2023-12-20T06:20:11;99684.00;;;1.86;100.00
7376;BME280;3728;42.266;24.944;2023-12-20T06:22:39;99671.53;;;2.00;100.00
7376;BME280;3728;42.266;24.944;2023-12-20T06:25:07;99673.03;;;2.18;100.00
7376;BME280;3728;42.266;24.944;2023-12-20T06:27:36;99674.16;;;2.27;100.00
7376;BME280;3728;42.266;24.944;2023-12-20T06:30:04;99681.09;;;2.21;100.00
7376;BME280;3728;42.266;24.944;2023-12-20T06:32:32;99675.34;;;2.19;100.00
7376;BME280;3728;42.266;24.944;2023-12-20T06:35:01;99679.91;;;2.12;100.00
7376;BME280;3728;42.266;24.944;2023-12-20T06:37:28;99682.34;;;2.19;100.00
7376;BME280;3728;42.266;24.944;2023-12-20T06:39:57;99679.91;;;2.12;100.00
7376;BME280;3728;42.266;24.944;2023-12-20T06:42:26;99670.75;;;2.21;100.00
7376;BME280;3728;42.266;24.944;2023-12-20T06:44:57;99668.50;;;2.30;100.00
7376;BME280;3728;42.266;24.944;2023-12-20T06:47:24;99664.78;;;2.42;100.00
7376;BME280;3728;42.266;24.944;2023-12-20T06:49:51;99669.75;;;2.49;100.00
7376;BME280;3728;42.266;24.944;2023-12-20T06:52:19;99676.09;;;2.63;100.00
7376;BME280;3728;42.266;24.944;2023-12-20T06:54:46;99678.22;;;2.71;100.00
7376;BME280;3728;42.266;24.944;2023-12-20T06:57:14;99689.13;;;2.73;100.00
7376;BME280;3728;42.266;24.944;2023-12-20T06:59:41;99693.84;;;2.81;100.00
7376;BME280;3728;42.266;24.944;2023-12-20T07:02:08;99691.38;;;2.91;100.00
7376;BME280;3728;42.266;24.944;2023-12-20T07:04:41;99690.03;;;3.20;100.00
7376;BME280;3728;42.266;24.944;2023-12-20T07:07:09;99687.06;;;3.33;100.00
7376;BME280;3728;42.266;24.944;2023-12-20T07:09:38;99691.84;;;3.52;100.00
7376;BME280;3728;42.266;24.944;2023-12-20T07:12:06;99685.94;;;3.61;100.00
7376;BME280;3728;42.266;24.944;2023-12-20T07:14:33;99679.28;;;3.75;100.00
7376;BME280;3728;42.266;24.944;2023-12-20T07:17:00;99685.81;;;3.83;100.00
7376;BME280;3728;42.266;24.944;2023-12-20T07:19:28;99687.47;;;4.04;100.00
7376;BME280;3728;42.266;24.944;2023-12-20T07:21:55;99675.63;;;4.18;99.57
7376;BME280;3728;42.266;24.944;2023-12-20T07:24:22;99668.91;;;4.27;100.00
7376;BME280;3728;42.266;24.944;2023-12-20T07:26:50;99668.16;;;4.37;100.00
7376;BME280;3728;42.266;24.944;2023-12-20T07:29:18;99660.94;;;4.54;99.92
7376;BME280;3728;42.266;24.944;2023-12-20T07:31:47;99653.97;;;4.74;99.90
7376;BME280;3728;42.266;24.944;2023-12-20T07:34:23;99656.56;;;4.95;97.80
7376;BME280;3728;42.266;24.944;2023-12-20T07:36:54;99658.13;;;5.21;96.74
7376;BME280;3728;42.266;24.944;2023-12-20T07:39:23;99658.63;;;5.38;95.72
7376;BME280;3728;42.266;24.944;2023-12-20T07:41:51;99653.94;;;5.55;94.88
7376;BME280;3728;42.266;24.944;2023-12-20T07:44:18;99649.25;;;5.72;93.99
7376;BME280;3728;42.266;24.944;2023-12-20T07:46:45;99644.50;;;5.89;93.99
7376;BME280;3728;42.266;24.944;2023-12-20T07:49:13;99640.59;;;5.97;92.74
7376;BME280;3728;42.266;24.944;2023-12-20T07:51:40;99646.00;;;6.05;92.99
7376;BME280;3728;42.266;24.944;2023-12-20T07:54:07;99649.06;;;6.22;90.97
7376;BME280;3728;42.266;24.944;2023-12-20T07:56:35;99651.66;;;6.22;89.91
7376;BME280;3728;42.266;24.944;2023-12-20T07:59:03;99640.16;;;6.34;91.04
7376;BME280;3728;42.266;24.944;2023-12-20T08:01:34;99638.03;;;6.41;89.43
7376;BME280;3728;42.266;24.944;2023-12-20T08:04:02;99642.06;;;6.62;89.03
7376;BME280;3728;42.266;24.944;2023-12-20T08:06:31;99645.50;;;6.91;88.51
7376;BME280;3728;42.266;24.944;2023-12-20T08:08:59;99649.47;;;7.17;85.91
7376;BME280;3728;42.266;24.944;2023-12-20T08:11:32;99643.81;;;7.39;85.57
7376;BME280;3728;42.266;24.944;2023-12-20T08:13:59;99650.03;;;7.67;84.13
7376;BME280;3728;42.266;24.944;2023-12-20T08:16:27;99640.94;;;7.88;83.17
7376;BME280;3728;42.266;24.944;2023-12-20T08:18:55;99644.66;;;8.24;80.60
7376;BME280;3728;42.266;24.944;2023-12-20T08:21:25;99649.16;;;8.42;79.07
7376;BME280;3728;42.266;24.944;2023-12-20T08:23:52;99641.78;;;8.81;78.14
7376;BME280;3728;42.266;24.944;2023-12-20T08:26:20;99636.00;;;9.17;76.82
7376;BME280;3728;42.266;24.944;2023-12-20T08:28:48;99627.44;;;9.57;75.78
7376;BME280;3728;42.266;24.944;2023-12-20T08:31:17;99631.22;;;9.78;74.50
7376;BME280;3728;42.266;24.944;2023-12-20T08:33:46;99619.00;;;9.87;73.57
7376;BME280;3728;42.266;24.944;2023-12-20T08:36:18;99615.03;;;9.76;73.33
7376;BME280;3728;42.266;24.944;2023-12-20T08:38:47;99615.88;;;9.44;74.36
7376;BME280;3728;42.266;24.944;2023-12-20T08:41:16;99613.59;;;8.97;75.81
7376;BME280;3728;42.266;24.944;2023-12-20T08:43:45;99611.03;;;8.78;78.14
7376;BME280;3728;42.266;24.944;2023-12-20T08:46:14;99603.31;;;8.87;79.08
7376;BME280;3728;42.266;24.944;2023-12-20T08:48:41;99599.28;;;8.94;78.97
7376;BME280;3728;42.266;24.944;2023-12-20T08:51:12;99592.97;;;9.28;78.96
7376;BME280;3728;42.266;24.944;2023-12-20T08:53:40;99589.94;;;9.75;77.45
7376;BME280;3728;42.266;24.944;2023-12-20T08:56:08;99581.69;;;10.45;76.74
7376;BME280;3728;42.266;24.944;2023-12-20T08:58:35;99580.44;;;11.17;72.62
7376;BME280;3728;42.266;24.944;2023-12-20T09:01:03;99573.28;;;11.88;70.50
7376;BME280;3728;42.266;24.944;2023-12-20T09:03:30;99576.88;;;12.26;67.96
7376;BME280;3728;42.266;24.944;2023-12-20T09:05:58;99578.44;;;11.62;66.68
7376;BME280;3728;42.266;24.944;2023-12-20T09:08:25;99566.91;;;10.93;69.54
7376;BME280;3728;42.266;24.944;2023-12-20T09:10:52;99557.34;;;10.22;70.44
7376;BME280;3728;42.266;24.944;2023-12-20T09:13:20;99544.44;;;9.35;74.68
7376;BME280;3728;42.266;24.944;2023-12-20T09:15:48;99533.78;;;8.91;78.33
7376;BME280;3728;42.266;24.944;2023-12-20T09:18:16;99521.09;;;8.84;79.40
7376;BME280;3728;42.266;24.944;2023-12-20T09:20:44;99507.88;;;8.94;80.01
7376;BME280;3728;42.266;24.944;2023-12-20T09:23:14;99505.84;;;9.19;78.66
7376;BME280;3728;42.266;24.944;2023-12-20T09:25:42;99505.38;;;9.44;77.71
7376;BME280;3728;42.266;24.944;2023-12-20T09:28:09;99508.16;;;9.47;76.82
7376;BME280;3728;42.266;24.944;2023-12-20T09:30:37;99503.31;;;9.54;76.79
7376;BME280;3728;42.266;24.944;2023-12-20T09:33:07;99495.56;;;9.36;78.38
7376;BME280;3728;42.266;24.944;2023-12-20T09:35:35;99496.44;;;9.31;79.77
7376;BME280;3728;42.266;24.944;2023-12-20T09:38:03;99486.84;;;9.40;81.51
7376;BME280;3728;42.266;24.944;2023-12-20T09:40:32;99485.34;;;9.75;80.71
7376;BME280;3728;42.266;24.944;2023-12-20T09:43:04;99477.97;;;10.13;79.46
7376;BME280;3728;42.266;24.944;2023-12-20T09:45:32;99477.81;;;10.32;79.54
7376;BME280;3728;42.266;24.944;2023-12-20T09:48:00;99469.13;;;10.45;79.03
7376;BME280;3728;42.266;24.944;2023-12-20T09:50:27;99475.22;;;10.32;79.69
7376;BME280;3728;42.266;24.944;2023-12-20T09:52:57;99469.44;;;10.43;79.24
7376;BME280;3728;42.266;24.944;2023-12-20T09:55:27;99466.97;;;10.47;79.87
7376;BME280;3728;42.266;24.944;2023-12-20T09:57:57;99461.94;;;10.59;79.41
7376;BME280;3728;42.266;24.944;2023-12-20T10:00:26;99454.91;;;10.68;78.48
7376;BME280;3728;42.266;24.944;2023-12-20T10:02:58;99449.69;;;10.76;77.39
7376;BME280;3728;42.266;24.944;2023-12-20T10:05:29;99447.19;;;11.02;75.37
7376;BME280;3728;42.266;24.944;2023-12-20T10:08:01;99441.19;;;11.10;77.19
7376;BME280;3728;42.266;24.944;2023-12-20T10:10:30;99431.63;;;11.14;76.27
7376;BME280;3728;42.266;24.944;2023-12-20T10:13:12;99429.50;;;11.25;77.01
7376;BME280;3728;42.266;24.944;2023-12-20T10:15:41;99424.72;;;11.18;75.47
7376;BME280;3728;42.266;24.944;2023-12-20T10:18:12;99433.31;;;11.10;75.89
7376;BME280;3728;42.266;24.944;2023-12-20T10:20:41;99424.72;;;11.35;77.40
7376;BME280;3728;42.266;24.944;2023-12-20T10:23:15;99418.47;;;11.79;76.53
7376;BME280;3728;42.266;24.944;2023-12-20T10:25:56;99415.66;;;12.10;73.08
7376;BME280;3728;42.266;24.944;2023-12-20T10:28:33;99421.38;;;12.12;72.50
7376;BME280;3728;42.266;24.944;2023-12-20T10:31:03;99407.28;;;12.25;70.87
7376;BME280;3728;42.266;24.944;2023-12-20T10:33:32;99404.28;;;12.44;72.25
7376;BME280;3728;42.266;24.944;2023-12-20T10:36:00;99407.03;;;13.23;68.70
7376;BME280;3728;42.266;24.944;2023-12-20T10:38:31;99398.16;;;13.56;66.05
7376;BME280;3728;42.266;24.944;2023-12-20T10:41:01;99399.06;;;13.93;64.97
7376;BME280;3728;42.266;24.944;2023-12-20T10:43:32;99405.38;;;13.80;63.35
7376;BME280;3728;42.266;24.944;2023-12-20T10:46:03;99390.31;;;13.48;64.36
7376;BME280;3728;42.266;24.944;2023-12-20T10:48:31;99376.66;;;13.04;65.72
7376;BME280;3728;42.266;24.944;2023-12-20T10:51:01;99374.13;;;12.87;67.91
7376;BME280;3728;42.266;24.944;2023-12-20T10:53:30;99371.75;;;12.65;68.22
7376;BME280;3728;42.266;24.944;2023-12-20T10:56:02;99354.78;;;12.63;70.06
7376;BME280;3728;42.266;24.944;2023-12-20T10:58:32;99355.56;;;12.92;68.52
7376;BME280;3728;42.266;24.944;2023-12-20T11:01:04;99353.59;;;13.10;68.03
7376;BME280;3728;42.266;24.944;2023-12-20T11:03:36;99352.16;;;13.21;65.53
7376;BME280;3728;42.266;24.944;2023-12-20T11:12:09;99332.59;;;13.96;63.52
7376;BME280;3728;42.266;24.944;2023-12-20T11:15:08;99328.69;;;14.26;60.62
7376;BME280;3728;42.266;24.944;2023-12-20T11:17:39;99324.09;;;14.35;59.93
7376;BME280;3728;42.266;24.944;2023-12-20T11:20:18;99338.16;;;14.64;59.30
7376;BME280;3728;42.266;24.944;2023-12-20T11:22:53;99326.75;;;14.60;60.76
7376;BME280;3728;42.266;24.944;2023-12-20T11:25:22;99317.19;;;14.55;59.68
7376;BME280;3728;42.266;24.944;2023-12-20T11:28:10;99309.38;;;14.34;60.12
7376;BME280;3728;42.266;24.944;2023-12-20T11:30:48;99302.97;;;13.99;60.84
7376;BME280;3728;42.266;24.944;2023-12-20T11:33:17;99304.00;;;13.74;62.95
7376;BME280;3728;42.266;24.944;2023-12-20T11:35:58;99300.66;;;13.53;62.91
7376;BME280;3728;42.266;24.944;2023-12-20T11:38:27;99287.09;;;13.30;64.20
7376;BME280;3728;42.266;24.944;2023-12-20T11:40:54;99284.47;;;13.10;65.10
7376;BME280;3728;42.266;24.944;2023-12-20T11:43:38;99279.06;;;12.85;66.67
7376;BME280;3728;42.266;24.944;2023-12-20T11:46:07;99274.25;;;12.87;65.65
7376;BME280;3728;42.266;24.944;2023-12-20T11:48:39;99275.41;;;12.98;64.58
7376;BME280;3728;42.266;24.944;2023-12-20T11:51:27;99264.59;;;13.00;63.07
7376;BME280;3728;42.266;24.944;2023-12-20T11:53:55;99256.81;;;12.83;64.72
7376;BME280;3728;42.266;24.944;2023-12-20T11:56:23;99257.53;;;12.92;65.05
7376;BME280;3728;42.266;24.944;2023-12-20T11:58:50;99251.28;;;13.38;65.17
7376;BME280;3728;42.266;24.944;2023-12-20T12:01:19;99244.72;;;13.44;62.96
7376;BME280;3728;42.266;24.944;2023-12-20T12:03:48;99236.19;;;13.14;64.14
7376;BME280;3728;42.266;24.944;2023-12-20T12:06:15;99227.66;;;12.96;65.34
7376;BME280;3728;42.266;24.944;2023-12-20T12:08:45;99224.63;;;12.86;66.29
7376;BME280;3728;42.266;24.944;2023-12-20T12:11:16;99219.06;;;12.87;67.50
7376;BME280;3728;42.266;24.944;2023-12-20T12:13:43;99221.72;;;13.53;62.92
7376;BME280;3728;42.266;24.944;2023-12-20T12:16:17;99212.09;;;13.57;63.69
7376;BME280;3728;42.266;24.944;2023-12-20T12:18:45;99214.75;;;13.69;61.63
7376;BME280;3728;42.266;24.944;2023-12-20T12:21:19;99216.59;;;13.56;62.43
7376;BME280;3728;42.266;24.944;2023-12-20T12:24:20;99207.06;;;13.19;64.09
7376;BME280;3728;42.266;24.944;2023-12-20T12:26:51;99202.69;;;13.02;66.26
7376;BME280;3728;42.266;24.944;2023-12-20T12:29:18;99196.56;;;12.98;67.04
7376;BME280;3728;42.266;24.944;2023-12-20T12:31:46;99198.81;;;13.09;65.51
7376;BME280;3728;42.266;24.944;2023-12-20T12:34:13;99208.81;;;13.15;65.22
7376;BME280;3728;42.266;24.944;2023-12-20T12:36:44;99195.13;;;13.22;65.88
7376;BME280;3728;42.266;24.944;2023-12-20T12:39:15;99193.03;;;13.15;66.15
7376;BME280;3728;42.266;24.944;2023-12-20T12:41:44;99195.56;;;13.12;65.25
7376;BME280;3728;42.266;24.944;2023-12-20T12:44:11;99188.75;;;13.11;65.71
7376;BME280;3728;42.266;24.944;2023-12-20T12:46:48;99185.72;;;13.21;64.74
7376;BME280;3728;42.266;24.944;2023-12-20T12:49:20;99181.19;;;13.09;65.69
7376;BME280;3728;42.266;24.944;2023-12-20T12:51:51;99174.16;;;12.80;66.99
7376;BME280;3728;42.266;24.944;2023-12-20T12:54:21;99181.97;;;12.68;67.82
7376;BME280;3728;42.266;24.944;2023-12-20T12:56:52;99182.94;;;13.17;65.50
7376;BME280;3728;42.266;24.944;2023-12-20T12:59:25;99181.59;;;13.44;63.75
7376;BME280;3728;42.266;24.944;2023-12-20T13:02:12;99184.16;;;13.20;62.83
7376;BME280;3728;42.266;24.944;2023-12-20T13:04:43;99179.66;;;12.87;65.33
7376;BME280;3728;42.266;24.944;2023-12-20T13:07:10;99180.81;;;12.78;65.26
7376;BME280;3728;42.266;24.944;2023-12-20T13:09:39;99176.53;;;12.73;67.74
7376;BME280;3728;42.266;24.944;2023-12-20T13:12:10;99174.91;;;12.60;67.24
7376;BME280;3728;42.266;24.944;2023-12-20T13:14:37;99171.31;;;12.44;68.58
7376;BME280;3728;42.266;24.944;2023-12-20T13:17:04;99180.03;;;12.36;69.01
7376;BME280;3728;42.266;24.944;2023-12-20T13:19:35;99173.19;;;12.44;68.95
7376;BME280;3728;42.266;24.944;2023-12-20T13:22:03;99171.72;;;12.55;68.59
7376;BME280;3728;42.266;24.944;2023-12-20T13:24:30;99165.81;;;12.58;68.79
7376;BME280;3728;42.266;24.944;2023-12-20T13:27:02;99169.09;;;12.55;69.79